createdAt,value
2022-08-16T00:01:42.758Z,22.12
2022-08-16T00:04:13.417Z,22.12
2022-08-16T00:06:42.067Z,22.09
2022-08-16T00:09:12.674Z,22.07
2022-08-16T00:11:46.402Z,22.05
2022-08-16T00:14:17.136Z,22.02
2022-08-16T00:17:11.687Z,21.97
2022-08-16T00:19:41.323Z,21.87
2022-08-16T00:22:13.508Z,21.79
2022-08-16T00:24:44.724Z,21.75
2022-08-16T00:27:17.462Z,21.76
2022-08-16T00:29:46.139Z,21.73
2022-08-16T00:32:17.782Z,21.71
2022-08-16T00:34:53.171Z,21.65
2022-08-16T00:37:24.474Z,21.66
2022-08-16T00:39:58.138Z,21.70
2022-08-16T00:42:31.609Z,21.67
2022-08-16T00:45:19.087Z,21.64
2022-08-16T00:47:55.250Z,21.62
2022-08-16T00:50:36.391Z,21.54
2022-08-16T00:53:06.611Z,21.49
2022-08-16T00:55:38.798Z,21.43
2022-08-16T00:58:13.126Z,21.36
2022-08-16T01:00:53.864Z,21.31
2022-08-16T01:03:31.661Z,21.24
2022-08-16T01:06:32.499Z,21.18
2022-08-16T01:08:55.120Z,21.17
2022-08-16T01:11:24.426Z,21.10
2022-08-16T01:13:58.190Z,21.07
2022-08-16T01:16:29.483Z,21.02
2022-08-16T01:19:02.790Z,20.98
2022-08-16T01:21:40.828Z,20.92
2022-08-16T01:24:52.921Z,20.90
2022-08-16T01:27:28.212Z,20.89
2022-08-16T01:30:02.945Z,20.90
2022-08-16T01:32:34.537Z,20.88
2022-08-16T01:35:06.715Z,20.87
2022-08-16T01:37:42.696Z,20.91
2022-08-16T01:40:15.375Z,20.87
2022-08-16T01:42:47.949Z,20.85
2022-08-16T01:45:19.444Z,20.85
2022-08-16T01:47:52.049Z,20.82
2022-08-16T01:50:42.742Z,20.78
2022-08-16T01:53:11.952Z,20.79
2022-08-16T01:55:53.697Z,20.72
2022-08-16T01:58:24.000Z,20.68
2022-08-16T02:00:52.214Z,20.64
2022-08-16T02:03:24.301Z,20.71
2022-08-16T02:05:54.910Z,20.78
2022-08-16T02:08:32.885Z,20.86
2022-08-16T02:11:07.869Z,20.89
2022-08-16T02:13:36.584Z,20.89
2022-08-16T02:16:18.722Z,20.92
2022-08-16T02:18:47.693Z,20.89
2022-08-16T02:21:17.631Z,20.90
2022-08-16T02:23:59.805Z,20.92
2022-08-16T02:26:29.723Z,20.90
2022-08-16T02:29:02.663Z,20.86
2022-08-16T02:32:03.986Z,20.81
2022-08-16T02:34:20.680Z,20.82
2022-08-16T02:37:01.350Z,20.76
2022-08-16T02:39:30.271Z,20.76
2022-08-16T02:42:00.427Z,20.79
2022-08-16T02:44:29.330Z,20.79
2022-08-16T02:46:57.487Z,20.84
2022-08-16T02:49:58.612Z,20.72
2022-08-16T02:52:24.440Z,20.67
2022-08-16T02:54:55.291Z,20.61
2022-08-16T02:57:25.438Z,20.59
2022-08-16T02:59:53.627Z,20.53
2022-08-16T03:02:31.756Z,20.50
2022-08-16T03:05:01.638Z,20.48
2022-08-16T03:07:30.054Z,20.48
2022-08-16T03:10:06.699Z,20.48
2022-08-16T03:12:37.821Z,20.42
2022-08-16T03:15:24.432Z,20.33
2022-08-16T03:17:54.274Z,20.30
2022-08-16T03:20:32.408Z,20.26
2022-08-16T03:23:01.855Z,20.24
2022-08-16T03:25:43.302Z,20.23
2022-08-16T03:28:17.238Z,20.30
2022-08-16T03:30:47.410Z,20.34
2022-08-16T03:33:15.947Z,20.26
2022-08-16T03:35:44.286Z,20.22
2022-08-16T03:38:33.564Z,20.16
2022-08-16T03:41:04.128Z,20.20
2022-08-16T03:43:51.897Z,20.15
2022-08-16T03:46:48.030Z,20.14
2022-08-16T03:49:12.481Z,20.16
2022-08-16T03:51:43.296Z,20.35
2022-08-16T03:54:12.591Z,20.34
2022-08-16T03:56:57.936Z,20.32
2022-08-16T03:59:29.333Z,20.33
2022-08-16T04:01:58.316Z,20.35
2022-08-16T04:04:33.615Z,20.55
2022-08-16T04:07:04.237Z,20.75
2022-08-16T04:09:35.187Z,20.84
2022-08-16T04:12:11.362Z,21.04
2022-08-16T04:14:58.917Z,21.06
2022-08-16T04:17:27.303Z,21.19
2022-08-16T04:19:58.114Z,21.29
2022-08-16T04:22:27.500Z,21.48
2022-08-16T04:24:59.262Z,21.67
2022-08-16T04:27:28.998Z,21.87
2022-08-16T04:30:03.396Z,22.00
2022-08-16T04:32:32.346Z,22.16
2022-08-16T04:35:07.036Z,22.16
2022-08-16T04:37:41.888Z,22.13
2022-08-16T04:40:21.704Z,22.12
2022-08-16T04:42:50.780Z,22.27
2022-08-16T04:45:35.700Z,22.62
2022-08-16T04:48:05.782Z,23.03
2022-08-16T04:50:34.142Z,23.08
2022-08-16T04:53:02.243Z,23.12
2022-08-16T04:55:38.171Z,23.20
2022-08-16T04:58:46.089Z,23.31
2022-08-16T05:00:57.682Z,23.44
2022-08-16T05:03:26.206Z,23.49
2022-08-16T05:05:59.065Z,23.60
2022-08-16T05:08:34.239Z,23.63
2022-08-16T05:11:08.269Z,23.66
2022-08-16T05:13:41.795Z,23.82
2022-08-16T05:16:20.072Z,24.00
2022-08-16T05:18:50.722Z,24.06
2022-08-16T05:21:20.915Z,24.17
2022-08-16T05:23:58.484Z,24.24
2022-08-16T05:26:31.054Z,24.14
2022-08-16T05:29:03.651Z,24.32
2022-08-16T05:31:35.007Z,24.51
2022-08-16T05:34:04.778Z,24.73
2022-08-16T05:36:36.742Z,24.93
2022-08-16T05:39:08.639Z,25.09
2022-08-16T05:41:45.655Z,25.25
2022-08-16T05:44:24.273Z,25.40
2022-08-16T05:46:56.466Z,25.35
2022-08-16T05:49:39.355Z,25.53
2022-08-16T05:52:10.628Z,25.54
2022-08-16T05:54:46.661Z,25.51
2022-08-16T05:57:16.817Z,25.57
2022-08-16T05:59:45.853Z,25.56
2022-08-16T06:02:16.096Z,25.55
2022-08-16T06:04:45.221Z,25.62
2022-08-16T06:07:26.137Z,25.66
2022-08-16T06:09:58.375Z,25.70
2022-08-16T06:12:29.369Z,25.73
2022-08-16T06:15:00.116Z,25.79
2022-08-16T06:17:41.498Z,25.89
2022-08-16T06:20:15.215Z,26.03
2022-08-16T06:22:47.727Z,26.11
2022-08-16T06:25:35.944Z,26.20
2022-08-16T06:28:08.733Z,26.31
2022-08-16T06:30:43.888Z,26.33
2022-08-16T06:33:19.593Z,26.37
2022-08-16T06:35:50.814Z,26.36
2022-08-16T06:38:33.483Z,26.38
2022-08-16T06:41:04.267Z,26.40
2022-08-16T06:43:33.357Z,26.47
2022-08-16T06:46:03.694Z,26.62
2022-08-16T06:48:34.204Z,26.63
2022-08-16T06:51:04.615Z,26.76
2022-08-16T06:53:36.437Z,26.81
2022-08-16T06:56:14.512Z,26.85
2022-08-16T06:58:53.109Z,26.89
2022-08-16T07:01:42.945Z,26.96
2022-08-16T07:04:12.350Z,26.86
2022-08-16T07:06:43.522Z,26.90
2022-08-16T07:09:15.928Z,27.14
2022-08-16T07:11:51.605Z,27.24
2022-08-16T07:14:24.433Z,27.31
2022-08-16T07:16:58.320Z,27.27
2022-08-16T07:20:02.095Z,27.40
2022-08-16T07:22:38.178Z,27.47
2022-08-16T07:25:09.971Z,27.53
2022-08-16T07:27:39.448Z,27.57
2022-08-16T07:30:45.663Z,27.56
2022-08-16T07:33:00.677Z,27.73
2022-08-16T07:35:30.331Z,27.81
2022-08-16T07:37:58.460Z,27.95
2022-08-16T07:40:57.911Z,28.04
2022-08-16T07:43:15.399Z,28.15
2022-08-16T07:45:44.738Z,28.18
2022-08-16T07:48:15.425Z,28.17
2022-08-16T07:50:57.767Z,28.26
2022-08-16T07:53:30.073Z,28.34
2022-08-16T07:56:00.724Z,28.33
2022-08-16T07:58:34.903Z,28.39
2022-08-16T08:01:10.863Z,28.32
2022-08-16T08:03:48.207Z,28.44
2022-08-16T08:06:19.714Z,28.43
2022-08-16T08:08:49.645Z,28.55
2022-08-16T08:11:21.465Z,28.68
2022-08-16T08:13:50.556Z,28.69
2022-08-16T08:16:20.897Z,28.79
2022-08-16T08:18:55.892Z,28.83
2022-08-16T08:22:00.585Z,28.85
2022-08-16T08:24:19.035Z,29.07
2022-08-16T08:26:49.776Z,29.17
2022-08-16T08:29:22.857Z,29.24
2022-08-16T08:31:53.247Z,29.41
2022-08-16T08:34:23.071Z,29.43
2022-08-16T08:36:54.413Z,29.46
2022-08-16T08:39:23.814Z,29.66
2022-08-16T08:41:52.500Z,29.72
2022-08-16T08:44:29.107Z,29.77
2022-08-16T08:47:01.863Z,29.72
2022-08-16T08:49:55.025Z,29.73
2022-08-16T08:52:34.656Z,29.87
2022-08-16T08:55:09.148Z,30.02
2022-08-16T08:57:41.108Z,30.05
2022-08-16T09:00:13.531Z,29.98
2022-08-16T09:02:46.736Z,30.04
2022-08-16T09:05:22.210Z,30.17
2022-08-16T09:07:54.792Z,30.26
2022-08-16T09:10:29.938Z,30.37
2022-08-16T09:12:58.257Z,30.31
2022-08-16T09:15:32.861Z,30.35
2022-08-16T09:18:24.849Z,30.44
2022-08-16T09:20:58.654Z,30.63
2022-08-16T09:23:36.607Z,30.60
2022-08-16T09:26:45.209Z,30.61
2022-08-16T09:29:15.789Z,30.57
2022-08-16T09:31:43.018Z,30.58
2022-08-16T09:34:12.972Z,30.67
2022-08-16T09:36:46.846Z,30.68
2022-08-16T09:39:18.139Z,30.75
2022-08-16T09:41:53.067Z,30.93
2022-08-16T09:45:11.104Z,31.05
2022-08-16T09:47:12.165Z,31.22
2022-08-16T09:49:41.129Z,31.23
2022-08-16T09:52:10.729Z,31.21
2022-08-16T09:54:44.576Z,31.27
2022-08-16T09:57:13.896Z,31.30
2022-08-16T09:59:43.566Z,31.30
2022-08-16T10:02:26.276Z,31.35
2022-08-16T10:04:59.477Z,31.41
2022-08-16T10:07:44.321Z,31.43
2022-08-16T10:10:19.046Z,31.37
2022-08-16T10:13:16.147Z,31.40
2022-08-16T10:15:55.545Z,31.43
2022-08-16T10:19:01.475Z,31.66
2022-08-16T10:21:17.114Z,31.87
2022-08-16T10:23:46.888Z,31.99
2022-08-16T10:27:16.493Z,32.02
2022-08-16T10:29:07.069Z,31.98
2022-08-16T10:31:44.153Z,32.01
2022-08-16T10:34:32.017Z,32.15
2022-08-16T10:37:01.137Z,32.30
2022-08-16T10:39:40.445Z,32.42
2022-08-16T10:42:13.655Z,32.57
2022-08-16T10:44:42.947Z,32.74
2022-08-16T10:47:22.298Z,32.70
2022-08-16T10:49:50.505Z,32.57
2022-08-16T10:52:20.169Z,32.53
2022-08-16T10:57:39.586Z,32.60
2022-08-16T11:00:22.291Z,32.62
2022-08-16T11:02:59.864Z,32.61
2022-08-16T11:05:59.072Z,32.69
2022-08-16T11:08:23.566Z,32.86
2022-08-16T11:11:12.933Z,32.94
2022-08-16T11:13:59.978Z,32.99
2022-08-16T11:19:22.605Z,33.14
2022-08-16T11:24:42.395Z,33.12
2022-08-16T11:27:23.638Z,33.08
2022-08-16T11:29:56.670Z,33.15
2022-08-16T11:32:31.494Z,33.20
2022-08-16T11:35:14.916Z,33.26
2022-08-16T11:40:38.802Z,33.38
2022-08-16T11:43:10.087Z,33.31
2022-08-16T11:45:42.424Z,33.26
2022-08-16T11:48:10.963Z,33.28
2022-08-16T11:50:39.238Z,33.33
2022-08-16T11:53:08.613Z,33.38
2022-08-16T11:55:38.216Z,33.42
2022-08-16T11:58:10.873Z,33.38
2022-08-16T12:00:51.817Z,33.45
2022-08-16T12:03:34.879Z,33.51
2022-08-16T12:06:10.593Z,33.60
2022-08-16T12:08:41.652Z,33.54
2022-08-16T12:11:12.053Z,33.53
2022-08-16T12:13:42.111Z,33.58
2022-08-16T12:16:12.293Z,33.61
2022-08-16T12:21:19.940Z,33.60
2022-08-16T12:23:48.243Z,33.71
2022-08-16T12:26:18.067Z,33.78
2022-08-16T12:28:54.873Z,33.88
2022-08-16T12:31:27.089Z,33.84
2022-08-16T12:33:57.659Z,33.70
2022-08-16T12:36:29.687Z,33.61
2022-08-16T12:38:58.805Z,33.57
2022-08-16T12:41:27.226Z,33.54
2022-08-16T12:43:57.110Z,33.55
2022-08-16T12:46:31.410Z,33.64
2022-08-16T12:49:00.121Z,33.64
2022-08-16T12:51:46.794Z,33.72
2022-08-16T12:54:20.751Z,33.92
2022-08-16T12:56:50.537Z,33.93
2022-08-16T12:59:20.839Z,33.92
2022-08-16T13:01:57.993Z,33.91
2022-08-16T13:04:28.089Z,33.95
2022-08-16T13:09:42.882Z,33.44
2022-08-16T13:12:20.111Z,33.37
2022-08-16T13:14:50.290Z,33.39
2022-08-16T13:17:26.299Z,33.49
2022-08-16T13:20:07.318Z,33.64
2022-08-16T13:22:37.564Z,33.82
2022-08-16T13:25:07.439Z,33.74
2022-08-16T13:28:03.019Z,33.70
2022-08-16T13:30:37.172Z,33.78
2022-08-16T13:33:13.329Z,33.97
2022-08-16T13:35:44.316Z,34.17
2022-08-16T13:38:24.404Z,34.28
2022-08-16T13:40:56.146Z,34.35
2022-08-16T13:43:26.878Z,34.56
2022-08-16T13:45:56.327Z,34.85
2022-08-16T13:48:43.292Z,34.91
2022-08-16T13:51:16.791Z,34.94
2022-08-16T13:53:54.933Z,34.78
2022-08-16T13:56:37.394Z,34.56
2022-08-16T13:59:19.920Z,34.55
2022-08-16T14:01:55.495Z,34.59
2022-08-16T14:04:29.130Z,34.61
2022-08-16T14:06:58.840Z,34.52
2022-08-16T14:09:28.535Z,34.35
2022-08-16T14:11:57.665Z,34.53
2022-08-16T14:14:29.054Z,34.35
2022-08-16T14:16:58.653Z,34.40
2022-08-16T14:19:29.604Z,34.27
2022-08-16T14:22:14.739Z,34.25
2022-08-16T14:24:49.575Z,34.20
2022-08-16T14:27:19.725Z,34.15
2022-08-16T14:29:51.496Z,34.29
2022-08-16T14:32:34.448Z,34.13
2022-08-16T14:35:08.280Z,33.93
2022-08-16T14:37:37.846Z,33.80
2022-08-16T14:40:07.179Z,33.73
2022-08-16T14:42:43.938Z,33.70
2022-08-16T14:45:15.700Z,33.76
2022-08-16T14:47:45.538Z,33.86
2022-08-16T14:50:22.048Z,33.95
2022-08-16T14:52:59.039Z,34.30
2022-08-16T14:55:29.619Z,34.28
2022-08-16T14:57:58.307Z,34.36
2022-08-16T15:00:34.066Z,34.57
2022-08-16T15:03:09.631Z,34.42
2022-08-16T15:05:41.873Z,34.37
2022-08-16T15:08:11.279Z,34.45
2022-08-16T15:10:42.794Z,34.37
2022-08-16T15:13:16.417Z,34.24
2022-08-16T15:15:56.268Z,34.10
2022-08-16T15:18:31.761Z,34.08
2022-08-16T15:21:04.038Z,33.98
2022-08-16T15:23:34.264Z,33.95
2022-08-16T15:26:04.443Z,34.15
2022-08-16T15:28:38.419Z,34.18
2022-08-16T15:31:09.224Z,34.07
2022-08-16T15:33:44.372Z,34.13
2022-08-16T15:36:19.316Z,34.09
2022-08-16T15:38:56.291Z,34.10
2022-08-16T15:42:01.247Z,34.01
2022-08-16T15:44:45.087Z,34.02
2022-08-16T15:47:25.724Z,33.97
2022-08-16T15:49:55.581Z,33.87
2022-08-16T15:52:29.607Z,33.84
2022-08-16T15:54:59.409Z,33.75
2022-08-16T15:57:30.330Z,33.63
2022-08-16T16:00:20.786Z,33.37
2022-08-16T16:02:50.226Z,33.35
2022-08-16T16:05:20.156Z,33.29
2022-08-16T16:07:56.453Z,33.20
2022-08-16T16:10:30.029Z,33.12
2022-08-16T16:13:00.686Z,33.05
2022-08-16T16:15:31.517Z,32.91
2022-08-16T16:17:59.956Z,32.81
2022-08-16T16:20:39.685Z,32.77
2022-08-16T16:23:10.362Z,32.62
2022-08-16T16:25:40.017Z,32.50
2022-08-16T16:28:46.055Z,32.44
2022-08-16T16:31:04.905Z,32.40
2022-08-16T16:33:37.074Z,32.32
2022-08-16T16:36:07.170Z,32.27
2022-08-16T16:38:39.256Z,32.28
2022-08-16T16:41:11.385Z,32.25
2022-08-16T16:43:43.338Z,32.22
2022-08-16T16:46:39.073Z,32.18
2022-08-16T16:49:03.971Z,32.11
2022-08-16T16:51:40.745Z,32.02
2022-08-16T16:54:12.928Z,31.94
2022-08-16T16:56:49.586Z,31.72
2022-08-16T16:59:18.841Z,31.49
2022-08-16T17:01:59.860Z,31.31
2022-08-16T17:04:39.112Z,31.15
2022-08-16T17:07:11.018Z,31.03
2022-08-16T17:09:42.119Z,30.84
2022-08-16T17:12:18.806Z,30.68
2022-08-16T17:14:54.005Z,30.63
2022-08-16T17:17:22.779Z,30.58
2022-08-16T17:19:51.350Z,30.49
2022-08-16T17:22:22.292Z,30.40
2022-08-16T17:24:53.922Z,30.26
2022-08-16T17:27:33.906Z,30.17
2022-08-16T17:30:14.906Z,30.01
2022-08-16T17:32:50.206Z,30.02
2022-08-16T17:35:22.983Z,29.94
2022-08-16T17:37:52.519Z,29.92
2022-08-16T17:40:46.065Z,29.83
2022-08-16T17:43:16.500Z,29.84
2022-08-16T17:45:45.035Z,29.73
2022-08-16T17:48:13.325Z,29.73
2022-08-16T17:50:43.045Z,29.67
2022-08-16T17:53:12.374Z,29.59
2022-08-16T17:55:44.149Z,29.56
2022-08-16T17:58:22.957Z,29.58
2022-08-16T18:00:57.513Z,29.47
2022-08-16T18:04:03.073Z,29.40
2022-08-16T18:06:18.699Z,29.44
2022-08-16T18:08:48.889Z,29.38
2022-08-16T18:11:26.276Z,29.40
2022-08-16T18:13:55.808Z,29.22
2022-08-16T18:16:24.561Z,29.18
2022-08-16T18:18:52.926Z,29.16
2022-08-16T18:21:44.594Z,29.06
2022-08-16T18:24:15.251Z,28.98
2022-08-16T18:26:44.938Z,28.92
2022-08-16T18:29:13.847Z,28.83
2022-08-16T18:31:42.372Z,28.85
2022-08-16T18:34:10.892Z,28.82
2022-08-16T18:36:39.022Z,28.81
2022-08-16T18:39:07.170Z,28.75
2022-08-16T18:41:37.401Z,28.71
2022-08-16T18:44:25.115Z,28.65
2022-08-16T18:46:55.225Z,28.64
2022-08-16T18:49:23.766Z,28.58
2022-08-16T18:51:52.091Z,28.61
2022-08-16T18:54:20.299Z,28.52
2022-08-16T18:56:56.100Z,28.57
2022-08-16T18:59:33.248Z,28.55
2022-08-16T19:02:04.203Z,28.56
2022-08-16T19:04:56.055Z,28.40
2022-08-16T19:07:30.579Z,28.34
2022-08-16T19:10:01.031Z,28.30
2022-08-16T19:12:38.145Z,28.24
2022-08-16T19:15:16.330Z,28.41
2022-08-16T19:17:46.320Z,28.37
2022-08-16T19:20:16.525Z,28.31
2022-08-16T19:23:05.333Z,28.22
2022-08-16T19:25:49.205Z,28.12
2022-08-16T19:28:49.653Z,28.08
2022-08-16T19:31:16.729Z,28.09
2022-08-16T19:33:53.794Z,28.10
2022-08-16T19:36:31.068Z,28.06
2022-08-16T19:39:04.797Z,28.17
2022-08-16T19:41:35.669Z,28.15
2022-08-16T19:44:05.059Z,28.07
2022-08-16T19:46:35.106Z,28.01
2022-08-16T19:49:03.275Z,27.92
2022-08-16T19:51:32.251Z,27.80
2022-08-16T19:54:00.545Z,27.79
2022-08-16T19:56:28.674Z,27.77
2022-08-16T20:01:46.571Z,27.59
2022-08-16T20:04:14.961Z,27.55
2022-08-16T20:06:43.755Z,27.55
2022-08-16T20:09:15.200Z,27.49
2022-08-16T20:11:45.348Z,27.44
2022-08-16T20:14:20.191Z,27.36
2022-08-16T20:16:58.160Z,27.29
2022-08-16T20:19:28.281Z,27.23
2022-08-16T20:21:57.647Z,27.17
2022-08-16T20:24:35.968Z,27.21
2022-08-16T20:27:07.547Z,27.19
2022-08-16T20:29:37.141Z,27.09
2022-08-16T20:32:08.221Z,27.06
2022-08-16T20:34:36.749Z,27.08
2022-08-16T20:37:06.461Z,27.03
2022-08-16T20:39:34.682Z,26.98
2022-08-16T20:42:02.891Z,26.99
2022-08-16T20:44:31.157Z,26.97
2022-08-16T20:46:59.230Z,27.00
2022-08-16T20:49:29.322Z,27.02
2022-08-16T20:51:59.707Z,27.05
2022-08-16T20:54:29.003Z,27.04
2022-08-16T20:57:16.582Z,27.02
2022-08-16T20:59:49.836Z,26.91
2022-08-16T21:02:28.069Z,26.83
2022-08-16T21:04:58.219Z,26.79
2022-08-16T21:07:28.237Z,26.79
2022-08-16T21:09:57.767Z,26.81
2022-08-16T21:12:27.258Z,26.76
2022-08-16T21:15:06.910Z,26.74
2022-08-16T21:17:35.804Z,26.71
2022-08-16T21:20:08.500Z,26.74
2022-08-16T21:22:37.728Z,26.77
2022-08-16T21:25:06.983Z,26.79
2022-08-16T21:27:39.521Z,26.77
2022-08-16T21:30:32.227Z,26.76
2022-08-16T21:33:07.241Z,26.79
2022-08-16T21:35:37.952Z,26.77
2022-08-16T21:38:29.013Z,26.74
2022-08-16T21:40:56.083Z,26.73
2022-08-16T21:43:25.721Z,26.76
2022-08-16T21:45:55.713Z,26.78
2022-08-16T21:48:34.477Z,26.78
2022-08-16T21:51:08.001Z,26.76
2022-08-16T21:53:37.966Z,26.77
2022-08-16T21:56:08.296Z,26.77
2022-08-16T21:58:44.277Z,26.71
2022-08-16T22:01:13.384Z,26.63
2022-08-16T22:03:43.023Z,26.61
2022-08-16T22:06:14.719Z,26.63
2022-08-16T22:08:48.149Z,26.59
2022-08-16T22:11:18.184Z,26.55
2022-08-16T22:13:57.130Z,26.48
2022-08-16T22:16:29.104Z,26.42
2022-08-16T22:18:57.954Z,26.33
2022-08-16T22:21:27.649Z,26.36
2022-08-16T22:23:57.542Z,26.31
2022-08-16T22:26:30.811Z,26.22
2022-08-16T22:29:00.206Z,26.20
2022-08-16T22:31:28.447Z,26.23
2022-08-16T22:33:58.008Z,26.19
2022-08-16T22:36:29.132Z,26.07
2022-08-16T22:38:59.165Z,26.07
2022-08-16T22:41:28.854Z,26.04
2022-08-16T22:43:57.604Z,26.09
2022-08-16T22:46:26.034Z,26.01
2022-08-16T22:48:54.208Z,25.96
2022-08-16T22:51:25.081Z,25.88
2022-08-16T22:53:55.493Z,25.83
2022-08-16T22:56:24.875Z,25.78
2022-08-16T22:58:53.496Z,25.86
2022-08-16T23:01:23.877Z,25.86
2022-08-16T23:03:52.299Z,25.84
2022-08-16T23:06:20.544Z,25.73
2022-08-16T23:08:48.670Z,25.67
2022-08-16T23:11:22.683Z,25.68
2022-08-16T23:13:53.565Z,25.60
2022-08-16T23:19:13.666Z,25.57
2022-08-16T23:21:45.022Z,25.50
2022-08-16T23:24:14.533Z,25.59
2022-08-16T23:26:48.763Z,25.46
2022-08-16T23:29:23.266Z,25.37
2022-08-16T23:31:53.917Z,25.33
2022-08-16T23:34:22.283Z,25.30
2022-08-16T23:36:50.517Z,25.41
2022-08-16T23:39:18.999Z,25.45
2022-08-16T23:41:48.657Z,25.35
2022-08-16T23:44:56.700Z,25.29
2022-08-16T23:47:06.716Z,25.18
2022-08-16T23:49:56.290Z,25.11
2022-08-16T23:52:53.071Z,25.04
2022-08-16T23:55:11.926Z,24.97
2022-08-16T23:57:41.637Z,24.97
